sensor_id;sensor_type;location;lat;lon;timestamp;pressure;altitude;pressure_sealevel;temperature;humidity
9129;BME280;4599;50.906;6.786;2024-01-30T00:01:02;101457.16;;;7.63;82.89
9129;BME280;4599;50.906;6.786;2024-01-30T00:05:04;101454.78;;;7.58;82.43
9129;BME280;4599;50.906;6.786;2024-01-30T00:09:06;101451.09;;;7.65;83.23
9129;BME280;4599;50.906;6.786;2024-01-30T00:13:09;101447.72;;;7.65;82.18
9129;BME280;4599;50.906;6.786;2024-01-30T00:17:12;101440.69;;;7.70;82.25
9129;BME280;4599;50.906;6.786;2024-01-30T00:21:13;101439.47;;;7.58;82.86
9129;BME280;4599;50.906;6.786;2024-01-30T00:25:15;101444.47;;;7.61;82.58
9129;BME280;4599;50.906;6.786;2024-01-30T00:29:19;101441.53;;;7.50;82.90
9129;BME280;4599;50.906;6.786;2024-01-30T00:33:21;101416.97;;;7.27;83.09
9129;BME280;4599;50.906;6.786;2024-01-30T00:37:23;101435.16;;;7.40;84.12
9129;BME280;4599;50.906;6.786;2024-01-30T00:41:24;101437.00;;;7.36;83.47
9129;BME280;4599;50.906;6.786;2024-01-30T00:45:27;101435.16;;;7.40;83.96
9129;BME280;4599;50.906;6.786;2024-01-30T00:49:29;101440.63;;;7.51;82.79
9129;BME280;4599;50.906;6.786;2024-01-30T00:53:31;101428.25;;;7.42;83.27
9129;BME280;4599;50.906;6.786;2024-01-30T00:57:33;101433.50;;;7.39;83.18
9129;BME280;4599;50.906;6.786;2024-01-30T01:01:36;101435.03;;;7.43;83.47
9129;BME280;4599;50.906;6.786;2024-01-30T01:05:39;101427.75;;;7.34;83.31
9129;BME280;4599;50.906;6.786;2024-01-30T01:09:40;101432.25;;;7.27;83.64
9129;BME280;4599;50.906;6.786;2024-01-30T01:13:42;101429.22;;;7.39;83.45
9129;BME280;4599;50.906;6.786;2024-01-30T01:17:45;101432.78;;;7.35;84.00
9129;BME280;4599;50.906;6.786;2024-01-30T01:21:47;101428.75;;;7.30;84.08
9129;BME280;4599;50.906;6.786;2024-01-30T01:25:49;101434.28;;;7.19;84.83
9129;BME280;4599;50.906;6.786;2024-01-30T01:29:50;101426.22;;;7.30;84.44
9129;BME280;4599;50.906;6.786;2024-01-30T01:33:53;101434.91;;;7.26;84.53
9129;BME280;4599;50.906;6.786;2024-01-30T01:37:56;101430.31;;;7.12;85.28
9129;BME280;4599;50.906;6.786;2024-01-30T01:41:57;101424.63;;;7.27;84.25
9129;BME280;4599;50.906;6.786;2024-01-30T01:45:59;101425.06;;;7.17;85.20
9129;BME280;4599;50.906;6.786;2024-01-30T01:50:03;101423.88;;;7.25;84.51
9129;BME280;4599;50.906;6.786;2024-01-30T01:54:05;101424.09;;;7.19;84.68
9129;BME280;4599;50.906;6.786;2024-01-30T01:58:08;101426.06;;;7.13;84.71
9129;BME280;4599;50.906;6.786;2024-01-30T02:02:11;101419.34;;;7.12;85.45
9129;BME280;4599;50.906;6.786;2024-01-30T02:06:16;101421.97;;;7.09;85.46
9129;BME280;4599;50.906;6.786;2024-01-30T02:10:18;101413.31;;;7.13;84.96
9129;BME280;4599;50.906;6.786;2024-01-30T02:14:19;101419.91;;;7.18;84.72
9129;BME280;4599;50.906;6.786;2024-01-30T02:18:22;101412.00;;;7.24;84.42
9129;BME280;4599;50.906;6.786;2024-01-30T02:22:25;101417.66;;;7.11;84.83
9129;BME280;4599;50.906;6.786;2024-01-30T02:26:27;101406.59;;;7.12;84.70
9129;BME280;4599;50.906;6.786;2024-01-30T02:30:28;101406.22;;;6.99;85.42
9129;BME280;4599;50.906;6.786;2024-01-30T02:34:30;101396.44;;;7.10;85.47
9129;BME280;4599;50.906;6.786;2024-01-30T02:38:34;101393.06;;;7.10;84.41
9129;BME280;4599;50.906;6.786;2024-01-30T02:42:36;101391.16;;;7.15;84.72
9129;BME280;4599;50.906;6.786;2024-01-30T02:46:37;101388.75;;;7.12;85.01
9129;BME280;4599;50.906;6.786;2024-01-30T02:50:40;101392.84;;;6.94;85.42
9129;BME280;4599;50.906;6.786;2024-01-30T02:54:44;101386.69;;;6.99;84.94
9129;BME280;4599;50.906;6.786;2024-01-30T02:58:46;101388.47;;;6.97;85.75
9129;BME280;4599;50.906;6.786;2024-01-30T03:02:48;101384.56;;;6.89;85.75
9129;BME280;4599;50.906;6.786;2024-01-30T03:06:50;101382.25;;;6.83;86.31
9129;BME280;4599;50.906;6.786;2024-01-30T03:10:53;101386.66;;;6.79;85.80
9129;BME280;4599;50.906;6.786;2024-01-30T03:14:55;101384.72;;;6.84;85.98
9129;BME280;4599;50.906;6.786;2024-01-30T03:18:56;101368.56;;;6.64;86.16
9129;BME280;4599;50.906;6.786;2024-01-30T03:23:00;101328.50;;;6.47;85.76
9129;BME280;4599;50.906;6.786;2024-01-30T03:27:03;101382.44;;;6.78;86.34
9129;BME280;4599;50.906;6.786;2024-01-30T03:31:06;101376.22;;;6.85;86.52
9129;BME280;4599;50.906;6.786;2024-01-30T03:35:09;101370.34;;;6.83;86.31
9129;BME280;4599;50.906;6.786;2024-01-30T03:39:10;101364.13;;;6.90;85.84
9129;BME280;4599;50.906;6.786;2024-01-30T03:43:13;101368.97;;;6.96;86.11
9129;BME280;4599;50.906;6.786;2024-01-30T03:47:15;101362.91;;;6.99;85.40
9129;BME280;4599;50.906;6.786;2024-01-30T03:51:17;101356.81;;;7.03;85.60
9129;BME280;4599;50.906;6.786;2024-01-30T03:55:18;101355.84;;;7.06;85.48
9129;BME280;4599;50.906;6.786;2024-01-30T03:59:21;101357.88;;;6.97;85.88
9129;BME280;4599;50.906;6.786;2024-01-30T04:03:23;101346.47;;;7.06;86.33
9129;BME280;4599;50.906;6.786;2024-01-30T04:07:25;101354.31;;;7.01;86.32
9129;BME280;4599;50.906;6.786;2024-01-30T04:11:26;101356.59;;;6.87;87.13
9129;BME280;4599;50.906;6.786;2024-01-30T04:15:29;101356.44;;;6.70;87.18
9129;BME280;4599;50.906;6.786;2024-01-30T04:19:31;101355.84;;;6.64;87.00
9129;BME280;4599;50.906;6.786;2024-01-30T04:23:33;101358.19;;;6.48;87.01
9129;BME280;4599;50.906;6.786;2024-01-30T04:27:35;101346.78;;;6.35;86.97
9129;BME280;4599;50.906;6.786;2024-01-30T04:31:37;101347.19;;;6.24;87.27
9129;BME280;4599;50.906;6.786;2024-01-30T04:35:39;101352.53;;;6.40;87.71
9129;BME280;4599;50.906;6.786;2024-01-30T04:39:41;101300.84;;;5.94;87.90
9129;BME280;4599;50.906;6.786;2024-01-30T04:43:44;101359.16;;;6.22;88.57
9129;BME280;4599;50.906;6.786;2024-01-30T04:47:47;101353.47;;;6.16;88.81
9129;BME280;4599;50.906;6.786;2024-01-30T04:51:48;101357.25;;;6.27;88.95
9129;BME280;4599;50.906;6.786;2024-01-30T04:55:50;101354.25;;;6.39;88.27
9129;BME280;4599;50.906;6.786;2024-01-30T04:59:52;101344.41;;;6.52;88.03
9129;BME280;4599;50.906;6.786;2024-01-30T05:03:55;101344.91;;;6.62;87.57
9129;BME280;4599;50.906;6.786;2024-01-30T05:07:57;101339.41;;;6.50;87.59
9129;BME280;4599;50.906;6.786;2024-01-30T05:11:59;101342.28;;;6.63;88.16
9129;BME280;4599;50.906;6.786;2024-01-30T05:16:02;101349.81;;;6.44;87.59
9129;BME280;4599;50.906;6.786;2024-01-30T05:20:06;101354.38;;;6.58;87.49
9129;BME280;4599;50.906;6.786;2024-01-30T05:24:08;101347.38;;;6.63;87.46
9129;BME280;4599;50.906;6.786;2024-01-30T05:28:09;101339.44;;;6.49;87.58
9129;BME280;4599;50.906;6.786;2024-01-30T05:32:11;101333.19;;;6.36;88.32
9129;BME280;4599;50.906;6.786;2024-01-30T05:36:14;101345.59;;;6.22;88.15
9129;BME280;4599;50.906;6.786;2024-01-30T05:40:16;101340.84;;;6.34;88.17
9129;BME280;4599;50.906;6.786;2024-01-30T05:44:18;101341.81;;;6.54;87.99
9129;BME280;4599;50.906;6.786;2024-01-30T05:48:19;101334.34;;;6.49;88.05
9129;BME280;4599;50.906;6.786;2024-01-30T05:52:22;101334.13;;;6.33;88.12
9129;BME280;4599;50.906;6.786;2024-01-30T05:56:24;101334.53;;;6.23;89.56
9129;BME280;4599;50.906;6.786;2024-01-30T06:00:26;101336.53;;;6.15;89.26
9129;BME280;4599;50.906;6.786;2024-01-30T06:04:28;101343.56;;;6.08;89.40
9129;BME280;4599;50.906;6.786;2024-01-30T06:08:31;101340.09;;;6.11;89.00
9129;BME280;4599;50.906;6.786;2024-01-30T06:12:33;101335.84;;;5.88;89.89
9129;BME280;4599;50.906;6.786;2024-01-30T06:16:34;101325.13;;;5.78;89.14
9129;BME280;4599;50.906;6.786;2024-01-30T06:20:36;101330.19;;;5.80;89.49
9129;BME280;4599;50.906;6.786;2024-01-30T06:24:39;101335.63;;;5.94;89.67
9129;BME280;4599;50.906;6.786;2024-01-30T06:28:41;101327.56;;;5.81;89.88
9129;BME280;4599;50.906;6.786;2024-01-30T06:32:52;101319.84;;;5.84;89.91
9129;BME280;4599;50.906;6.786;2024-01-30T06:36:54;101322.84;;;6.17;90.47
9129;BME280;4599;50.906;6.786;2024-01-30T06:40:56;101313.56;;;6.38;89.30
9129;BME280;4599;50.906;6.786;2024-01-30T06:44:57;101308.72;;;6.74;87.75
9129;BME280;4599;50.906;6.786;2024-01-30T06:49:00;101321.81;;;6.86;88.23
9129;BME280;4599;50.906;6.786;2024-01-30T06:53:02;101320.03;;;6.88;88.02
9129;BME280;4599;50.906;6.786;2024-01-30T06:57:04;101325.81;;;6.92;87.87
9129;BME280;4599;50.906;6.786;2024-01-30T07:01:06;101322.13;;;6.99;87.64
9129;BME280;4599;50.906;6.786;2024-01-30T07:05:09;101332.75;;;7.09;86.52
9129;BME280;4599;50.906;6.786;2024-01-30T07:09:12;101309.56;;;6.94;87.11
9129;BME280;4599;50.906;6.786;2024-01-30T07:13:13;101335.22;;;7.12;87.29
9129;BME280;4599;50.906;6.786;2024-01-30T07:17:15;101326.03;;;7.08;86.72
9129;BME280;4599;50.906;6.786;2024-01-30T07:21:18;101337.59;;;6.94;86.91
9129;BME280;4599;50.906;6.786;2024-01-30T07:25:20;101337.03;;;6.88;87.83
9129;BME280;4599;50.906;6.786;2024-01-30T07:29:21;101338.38;;;6.96;87.87
9129;BME280;4599;50.906;6.786;2024-01-30T07:33:23;101334.31;;;6.92;87.48
9129;BME280;4599;50.906;6.786;2024-01-30T07:37:26;101344.97;;;7.22;86.36
9129;BME280;4599;50.906;6.786;2024-01-30T07:41:28;101344.13;;;7.22;85.90
9129;BME280;4599;50.906;6.786;2024-01-30T07:45:29;101350.88;;;7.23;86.57
9129;BME280;4599;50.906;6.786;2024-01-30T07:49:32;101348.41;;;7.21;86.30
9129;BME280;4599;50.906;6.786;2024-01-30T07:53:35;101353.69;;;7.17;87.09
9129;BME280;4599;50.906;6.786;2024-01-30T07:57:38;101361.38;;;6.95;87.13
9129;BME280;4599;50.906;6.786;2024-01-30T08:01:40;101364.00;;;6.93;86.99
9129;BME280;4599;50.906;6.786;2024-01-30T08:05:42;101369.81;;;6.97;87.75
9129;BME280;4599;50.906;6.786;2024-01-30T08:09:45;101371.66;;;6.93;87.12
9129;BME280;4599;50.906;6.786;2024-01-30T08:13:47;101363.91;;;6.95;87.53
9129;BME280;4599;50.906;6.786;2024-01-30T08:17:49;101366.25;;;7.01;87.12
9129;BME280;4599;50.906;6.786;2024-01-30T08:21:51;101364.63;;;6.98;87.59
9129;BME280;4599;50.906;6.786;2024-01-30T08:25:54;101356.63;;;7.08;87.48
9129;BME280;4599;50.906;6.786;2024-01-30T08:29:55;101358.78;;;7.17;85.63
9129;BME280;4599;50.906;6.786;2024-01-30T08:33:57;101368.34;;;7.12;86.73
9129;BME280;4599;50.906;6.786;2024-01-30T08:37:59;101368.84;;;6.99;86.89
9129;BME280;4599;50.906;6.786;2024-01-30T08:42:02;101373.94;;;7.20;86.68
9129;BME280;4599;50.906;6.786;2024-01-30T08:46:04;101370.75;;;7.35;85.49
9129;BME280;4599;50.906;6.786;2024-01-30T08:50:07;101377.56;;;7.34;85.46
9129;BME280;4599;50.906;6.786;2024-01-30T08:54:09;101379.16;;;7.37;85.31
9129;BME280;4599;50.906;6.786;2024-01-30T08:58:12;101383.44;;;7.57;84.53
9129;BME280;4599;50.906;6.786;2024-01-30T09:02:13;101388.22;;;7.44;85.93
9129;BME280;4599;50.906;6.786;2024-01-30T09:06:15;101384.19;;;7.79;84.95
9129;BME280;4599;50.906;6.786;2024-01-30T09:10:17;101392.16;;;7.71;84.42
9129;BME280;4599;50.906;6.786;2024-01-30T09:14:23;101388.50;;;7.77;84.45
9129;BME280;4599;50.906;6.786;2024-01-30T09:18:24;101405.38;;;7.99;84.13
9129;BME280;4599;50.906;6.786;2024-01-30T09:22:26;101408.06;;;7.96;84.34
9129;BME280;4599;50.906;6.786;2024-01-30T09:26:28;101414.69;;;8.19;84.21
9129;BME280;4599;50.906;6.786;2024-01-30T09:30:31;101422.38;;;8.38;83.60
9129;BME280;4599;50.906;6.786;2024-01-30T09:34:33;101414.63;;;8.58;82.25
9129;BME280;4599;50.906;6.786;2024-01-30T09:38:34;101433.78;;;8.49;82.79
9129;BME280;4599;50.906;6.786;2024-01-30T09:42:36;101438.91;;;8.49;82.76
9129;BME280;4599;50.906;6.786;2024-01-30T09:46:40;101451.22;;;8.40;82.23
9129;BME280;4599;50.906;6.786;2024-01-30T09:50:41;101447.16;;;8.55;82.40
9129;BME280;4599;50.906;6.786;2024-01-30T09:54:44;101445.63;;;8.50;83.24
9129;BME280;4599;50.906;6.786;2024-01-30T09:58:46;101451.72;;;8.48;82.89
9129;BME280;4599;50.906;6.786;2024-01-30T10:02:49;101438.91;;;8.49;83.30
9129;BME280;4599;50.906;6.786;2024-01-30T10:06:51;101456.19;;;8.80;82.30
9129;BME280;4599;50.906;6.786;2024-01-30T10:10:53;101457.72;;;8.84;82.45
9129;BME280;4599;50.906;6.786;2024-01-30T10:14:56;101454.34;;;9.01;81.68
9129;BME280;4599;50.906;6.786;2024-01-30T10:18:59;101447.66;;;8.98;81.52
9129;BME280;4599;50.906;6.786;2024-01-30T10:23:01;101444.94;;;9.02;81.67
9129;BME280;4599;50.906;6.786;2024-01-30T10:27:05;101442.09;;;9.08;81.47
9129;BME280;4599;50.906;6.786;2024-01-30T10:31:07;101444.63;;;8.90;82.30
9129;BME280;4599;50.906;6.786;2024-01-30T10:35:12;101447.56;;;9.00;82.32
9129;BME280;4599;50.906;6.786;2024-01-30T10:39:16;101446.94;;;9.14;81.95
9129;BME280;4599;50.906;6.786;2024-01-30T10:43:21;101445.44;;;9.44;81.23
9129;BME280;4599;50.906;6.786;2024-01-30T10:47:26;101445.38;;;9.45;81.48
9129;BME280;4599;50.906;6.786;2024-01-30T10:51:31;101451.38;;;9.62;81.25
9129;BME280;4599;50.906;6.786;2024-01-30T10:55:33;101442.16;;;9.75;81.10
9129;BME280;4599;50.906;6.786;2024-01-30T10:59:36;101433.66;;;9.74;80.43
9129;BME280;4599;50.906;6.786;2024-01-30T11:03:38;101430.03;;;9.78;80.13
9129;BME280;4599;50.906;6.786;2024-01-30T11:07:41;101428.06;;;9.83;81.84
9129;BME280;4599;50.906;6.786;2024-01-30T11:11:50;101423.69;;;9.85;81.91
9129;BME280;4599;50.906;6.786;2024-01-30T11:15:52;101439.53;;;10.09;79.96
9129;BME280;4599;50.906;6.786;2024-01-30T11:19:53;101445.75;;;10.21;80.81
9129;BME280;4599;50.906;6.786;2024-01-30T11:23:56;101444.47;;;10.45;77.70
9129;BME280;4599;50.906;6.786;2024-01-30T11:27:58;101438.56;;;10.27;78.95
9129;BME280;4599;50.906;6.786;2024-01-30T11:32:01;101435.69;;;10.49;77.87
9129;BME280;4599;50.906;6.786;2024-01-30T11:36:03;101424.38;;;10.53;77.82
9129;BME280;4599;50.906;6.786;2024-01-30T11:40:08;101426.59;;;10.75;77.86
9129;BME280;4599;50.906;6.786;2024-01-30T11:44:10;101427.31;;;10.92;77.49
9129;BME280;4599;50.906;6.786;2024-01-30T11:48:12;101432.38;;;10.94;77.00
9129;BME280;4599;50.906;6.786;2024-01-30T11:52:14;101431.59;;;11.08;76.18
9129;BME280;4599;50.906;6.786;2024-01-30T11:56:17;101424.50;;;10.97;77.78
9129;BME280;4599;50.906;6.786;2024-01-30T12:00:19;101430.50;;;11.12;77.38
9129;BME280;4599;50.906;6.786;2024-01-30T12:04:20;101438.88;;;10.99;78.73
9129;BME280;4599;50.906;6.786;2024-01-30T12:08:22;101430.63;;;10.94;77.67
9129;BME280;4599;50.906;6.786;2024-01-30T12:12:26;101434.75;;;10.97;79.33
9129;BME280;4599;50.906;6.786;2024-01-30T12:16:28;101437.97;;;11.01;79.64
9129;BME280;4599;50.906;6.786;2024-01-30T12:20:30;101433.84;;;11.28;79.68
9129;BME280;4599;50.906;6.786;2024-01-30T12:24:32;101440.69;;;11.57;76.80
9129;BME280;4599;50.906;6.786;2024-01-30T12:28:35;101438.06;;;11.73;74.05
9129;BME280;4599;50.906;6.786;2024-01-30T12:32:37;101441.78;;;11.97;73.83
9129;BME280;4599;50.906;6.786;2024-01-30T12:36:38;101433.50;;;12.06;73.90
9129;BME280;4599;50.906;6.786;2024-01-30T12:40:40;101437.44;;;11.97;74.26
9129;BME280;4599;50.906;6.786;2024-01-30T12:44:44;101440.94;;;12.11;74.31
9129;BME280;4599;50.906;6.786;2024-01-30T12:48:46;101437.78;;;12.20;74.39
9129;BME280;4599;50.906;6.786;2024-01-30T12:52:48;101441.19;;;12.20;74.84
9129;BME280;4599;50.906;6.786;2024-01-30T12:56:51;101448.41;;;12.42;74.17
9129;BME280;4599;50.906;6.786;2024-01-30T13:00:54;101448.97;;;12.19;75.57
9129;BME280;4599;50.906;6.786;2024-01-30T13:04:56;101454.28;;;12.44;74.86
9129;BME280;4599;50.906;6.786;2024-01-30T13:08:58;101455.25;;;12.29;75.00
9129;BME280;4599;50.906;6.786;2024-01-30T13:13:01;101462.13;;;12.14;76.03
9129;BME280;4599;50.906;6.786;2024-01-30T13:17:04;101451.28;;;12.09;75.68
9129;BME280;4599;50.906;6.786;2024-01-30T13:21:06;101458.72;;;12.00;76.26
9129;BME280;4599;50.906;6.786;2024-01-30T13:25:07;101453.66;;;12.12;76.12
9129;BME280;4599;50.906;6.786;2024-01-30T13:29:10;101451.72;;;12.30;75.58
9129;BME280;4599;50.906;6.786;2024-01-30T13:33:13;101461.47;;;12.25;76.43
9129;BME280;4599;50.906;6.786;2024-01-30T13:37:15;101464.25;;;12.22;75.40
9129;BME280;4599;50.906;6.786;2024-01-30T13:41:16;101467.53;;;11.95;76.24
9129;BME280;4599;50.906;6.786;2024-01-30T13:45:18;101466.97;;;11.90;76.52
9129;BME280;4599;50.906;6.786;2024-01-30T13:49:23;101475.22;;;11.81;77.10
9129;BME280;4599;50.906;6.786;2024-01-30T13:53:25;101476.44;;;11.76;76.84
9129;BME280;4599;50.906;6.786;2024-01-30T13:57:26;101466.31;;;11.73;77.46
9129;BME280;4599;50.906;6.786;2024-01-30T14:01:28;101474.28;;;11.68;77.14
9129;BME280;4599;50.906;6.786;2024-01-30T14:05:31;101430.75;;;11.37;77.85
9129;BME280;4599;50.906;6.786;2024-01-30T14:09:33;101491.56;;;11.51;78.85
9129;BME280;4599;50.906;6.786;2024-01-30T14:13:34;101484.78;;;11.49;78.63
9129;BME280;4599;50.906;6.786;2024-01-30T14:17:36;101477.47;;;11.58;77.88
9129;BME280;4599;50.906;6.786;2024-01-30T14:21:39;101488.44;;;11.45;78.67
9129;BME280;4599;50.906;6.786;2024-01-30T14:25:43;101485.47;;;11.37;79.41
9129;BME280;4599;50.906;6.786;2024-01-30T14:29:44;101482.41;;;11.31;80.04
9129;BME280;4599;50.906;6.786;2024-01-30T14:33:46;101483.66;;;11.39;79.46
9129;BME280;4599;50.906;6.786;2024-01-30T14:37:49;101492.44;;;11.35;79.58
9129;BME280;4599;50.906;6.786;2024-01-30T14:41:53;101488.38;;;11.31;79.46
9129;BME280;4599;50.906;6.786;2024-01-30T14:45:56;101472.59;;;11.23;80.51
9129;BME280;4599;50.906;6.786;2024-01-30T14:50:03;101488.09;;;11.22;80.02
9129;BME280;4599;50.906;6.786;2024-01-30T14:54:11;101490.88;;;11.33;79.84
9129;BME280;4599;50.906;6.786;2024-01-30T14:58:13;101494.03;;;11.22;80.11
9129;BME280;4599;50.906;6.786;2024-01-30T15:02:15;101499.84;;;11.26;80.44
9129;BME280;4599;50.906;6.786;2024-01-30T15:06:31;101515.00;;;11.15;80.84
9129;BME280;4599;50.906;6.786;2024-01-30T15:11:03;101511.41;;;11.17;80.88
9129;BME280;4599;50.906;6.786;2024-01-30T15:15:15;101516.78;;;11.28;80.00
9129;BME280;4599;50.906;6.786;2024-01-30T15:19:17;101513.31;;;11.29;79.75
9129;BME280;4599;50.906;6.786;2024-01-30T15:23:18;101524.56;;;11.27;80.58
9129;BME280;4599;50.906;6.786;2024-01-30T15:27:22;101528.06;;;11.10;80.16
9129;BME280;4599;50.906;6.786;2024-01-30T15:31:27;101537.50;;;11.25;78.84
9129;BME280;4599;50.906;6.786;2024-01-30T15:35:29;101541.91;;;11.08;79.37
9129;BME280;4599;50.906;6.786;2024-01-30T15:39:32;101542.44;;;11.13;79.23
9129;BME280;4599;50.906;6.786;2024-01-30T15:43:34;101556.88;;;10.99;79.80
9129;BME280;4599;50.906;6.786;2024-01-30T15:47:37;101577.63;;;10.95;80.43
9129;BME280;4599;50.906;6.786;2024-01-30T15:51:39;101584.50;;;10.79;80.16
9129;BME280;4599;50.906;6.786;2024-01-30T15:55:41;101592.25;;;10.62;81.17
9129;BME280;4599;50.906;6.786;2024-01-30T15:59:44;101603.03;;;10.51;81.24
9129;BME280;4599;50.906;6.786;2024-01-30T16:03:46;101604.03;;;10.48;80.57
9129;BME280;4599;50.906;6.786;2024-01-30T16:07:47;101611.19;;;10.42;81.27
9129;BME280;4599;50.906;6.786;2024-01-30T16:11:50;101619.97;;;10.38;81.56
9129;BME280;4599;50.906;6.786;2024-01-30T16:15:53;101618.28;;;10.37;81.13
9129;BME280;4599;50.906;6.786;2024-01-30T16:19:54;101622.97;;;10.29;81.05
9129;BME280;4599;50.906;6.786;2024-01-30T16:23:57;101625.81;;;10.06;81.27
9129;BME280;4599;50.906;6.786;2024-01-30T16:27:59;101631.69;;;10.08;80.28
9129;BME280;4599;50.906;6.786;2024-01-30T16:32:02;101642.81;;;10.07;79.98
9129;BME280;4599;50.906;6.786;2024-01-30T16:36:04;101649.41;;;9.95;79.88
9129;BME280;4599;50.906;6.786;2024-01-30T16:40:07;101659.16;;;9.87;80.12
9129;BME280;4599;50.906;6.786;2024-01-30T16:44:09;101667.84;;;9.84;78.54
9129;BME280;4599;50.906;6.786;2024-01-30T16:48:12;101675.91;;;9.94;77.33
9129;BME280;4599;50.906;6.786;2024-01-30T16:52:14;101660.28;;;9.81;76.29
9129;BME280;4599;50.906;6.786;2024-01-30T16:56:16;101683.47;;;9.78;76.04
9129;BME280;4599;50.906;6.786;2024-01-30T17:00:18;101688.72;;;9.75;74.06
9129;BME280;4599;50.906;6.786;2024-01-30T17:04:21;101691.59;;;9.69;73.52
9129;BME280;4599;50.906;6.786;2024-01-30T17:08:23;101701.81;;;9.69;72.21
9129;BME280;4599;50.906;6.786;2024-01-30T17:12:26;101711.72;;;9.58;72.45
9129;BME280;4599;50.906;6.786;2024-01-30T17:16:29;101707.50;;;9.57;72.25
9129;BME280;4599;50.906;6.786;2024-01-30T17:20:35;101703.63;;;9.48;72.24
9129;BME280;4599;50.906;6.786;2024-01-30T17:24:36;101721.75;;;9.44;72.14
9129;BME280;4599;50.906;6.786;2024-01-30T17:28:50;101732.00;;;9.44;71.73
9129;BME280;4599;50.906;6.786;2024-01-30T17:32:55;101739.84;;;9.39;71.77
9129;BME280;4599;50.906;6.786;2024-01-30T17:37:13;101744.56;;;9.30;72.12
9129;BME280;4599;50.906;6.786;2024-01-30T17:41:17;101736.19;;;9.26;71.92
9129;BME280;4599;50.906;6.786;2024-01-30T17:45:18;101749.63;;;9.31;72.70
9129;BME280;4599;50.906;6.786;2024-01-30T17:49:22;101752.66;;;9.39;70.35
9129;BME280;4599;50.906;6.786;2024-01-30T17:53:25;101766.41;;;9.37;71.02
9129;BME280;4599;50.906;6.786;2024-01-30T17:57:27;101760.75;;;9.30;70.46
9129;BME280;4599;50.906;6.786;2024-01-30T18:01:29;101775.41;;;9.27;71.52
9129;BME280;4599;50.906;6.786;2024-01-30T18:05:31;101782.22;;;9.26;71.63
9129;BME280;4599;50.906;6.786;2024-01-30T18:09:37;101767.59;;;9.30;70.57
9129;BME280;4599;50.906;6.786;2024-01-30T18:13:38;101762.38;;;9.13;71.43
9129;BME280;4599;50.906;6.786;2024-01-30T18:17:40;101782.00;;;9.12;71.36
9129;BME280;4599;50.906;6.786;2024-01-30T18:21:42;101780.97;;;9.16;71.05
9129;BME280;4599;50.906;6.786;2024-01-30T18:25:45;101782.69;;;9.16;71.28
9129;BME280;4599;50.906;6.786;2024-01-30T18:29:47;101791.00;;;9.00;70.94
9129;BME280;4599;50.906;6.786;2024-01-30T18:33:52;101795.88;;;9.07;70.76
9129;BME280;4599;50.906;6.786;2024-01-30T18:37:54;101784.97;;;9.03;70.40
9129;BME280;4599;50.906;6.786;2024-01-30T18:42:03;101802.28;;;9.17;70.69
9129;BME280;4599;50.906;6.786;2024-01-30T18:46:10;101798.81;;;8.97;70.12
9129;BME280;4599;50.906;6.786;2024-01-30T18:50:13;101793.38;;;9.05;68.11
9129;BME280;4599;50.906;6.786;2024-01-30T18:54:21;101803.78;;;9.00;69.19
9129;BME280;4599;50.906;6.786;2024-01-30T18:58:29;101818.44;;;8.97;68.57
9129;BME280;4599;50.906;6.786;2024-01-30T19:02:30;101821.19;;;8.92;68.48
9129;BME280;4599;50.906;6.786;2024-01-30T19:06:32;101825.47;;;8.92;68.19
9129;BME280;4599;50.906;6.786;2024-01-30T19:10:34;101838.00;;;8.78;68.75
9129;BME280;4599;50.906;6.786;2024-01-30T19:14:45;101832.47;;;8.67;69.28
9129;BME280;4599;50.906;6.786;2024-01-30T19:18:47;101835.63;;;8.73;68.15
9129;BME280;4599;50.906;6.786;2024-01-30T19:22:48;101844.41;;;8.66;69.16
9129;BME280;4599;50.906;6.786;2024-01-30T19:26:50;101840.53;;;8.78;69.39
9129;BME280;4599;50.906;6.786;2024-01-30T19:30:53;101837.41;;;8.71;70.01
9129;BME280;4599;50.906;6.786;2024-01-30T19:34:55;101833.94;;;8.72;70.53
9129;BME280;4599;50.906;6.786;2024-01-30T19:38:58;101838.84;;;8.57;71.70
9129;BME280;4599;50.906;6.786;2024-01-30T19:43:01;101852.13;;;8.65;72.63
9129;BME280;4599;50.906;6.786;2024-01-30T19:47:04;101846.22;;;8.64;72.77
9129;BME280;4599;50.906;6.786;2024-01-30T19:51:06;101865.28;;;8.56;73.59
9129;BME280;4599;50.906;6.786;2024-01-30T19:55:08;101869.38;;;8.60;73.97
9129;BME280;4599;50.906;6.786;2024-01-30T19:59:10;101868.13;;;8.48;74.82
9129;BME280;4599;50.906;6.786;2024-01-30T20:03:13;101868.19;;;8.68;74.77
9129;BME280;4599;50.906;6.786;2024-01-30T20:07:15;101869.25;;;8.41;75.73
9129;BME280;4599;50.906;6.786;2024-01-30T20:11:19;101876.75;;;8.45;75.12
9129;BME280;4599;50.906;6.786;2024-01-30T20:15:21;101885.53;;;8.38;75.64
9129;BME280;4599;50.906;6.786;2024-01-30T20:19:26;101887.50;;;8.32;75.58
9129;BME280;4599;50.906;6.786;2024-01-30T20:23:28;101898.03;;;8.46;75.05
9129;BME280;4599;50.906;6.786;2024-01-30T20:27:30;101897.88;;;8.26;75.09
9129;BME280;4599;50.906;6.786;2024-01-30T20:31:32;101906.94;;;8.36;75.05
9129;BME280;4599;50.906;6.786;2024-01-30T20:35:35;101904.53;;;8.31;74.41
9129;BME280;4599;50.906;6.786;2024-01-30T20:39:37;101909.94;;;8.22;74.67
9129;BME280;4599;50.906;6.786;2024-01-30T20:43:39;101900.44;;;8.26;75.03
9129;BME280;4599;50.906;6.786;2024-01-30T20:47:40;101909.13;;;8.22;75.20
9129;BME280;4599;50.906;6.786;2024-01-30T20:51:44;101911.84;;;8.17;75.55
9129;BME280;4599;50.906;6.786;2024-01-30T20:55:45;101917.06;;;8.14;75.84
9129;BME280;4599;50.906;6.786;2024-01-30T20:59:47;101918.78;;;8.14;75.84
9129;BME280;4599;50.906;6.786;2024-01-30T21:03:49;101931.47;;;8.15;76.46
9129;BME280;4599;50.906;6.786;2024-01-30T21:07:53;101917.19;;;8.11;76.28
9129;BME280;4599;50.906;6.786;2024-01-30T21:11:55;101916.13;;;8.17;76.51
9129;BME280;4599;50.906;6.786;2024-01-30T21:15:56;101913.69;;;8.14;76.52
9129;BME280;4599;50.906;6.786;2024-01-30T21:19:58;101933.84;;;8.21;76.09
9129;BME280;4599;50.906;6.786;2024-01-30T21:24:01;101931.94;;;8.03;76.92
9129;BME280;4599;50.906;6.786;2024-01-30T21:28:03;101942.81;;;8.08;77.01
9129;BME280;4599;50.906;6.786;2024-01-30T21:32:05;101937.81;;;8.05;76.80
9129;BME280;4599;50.906;6.786;2024-01-30T21:36:07;101942.00;;;8.08;77.23
9129;BME280;4599;50.906;6.786;2024-01-30T21:40:10;101941.47;;;7.98;77.79
9129;BME280;4599;50.906;6.786;2024-01-30T21:44:12;101944.09;;;7.96;78.28
9129;BME280;4599;50.906;6.786;2024-01-30T21:48:14;101945.25;;;7.88;78.87
9129;BME280;4599;50.906;6.786;2024-01-30T21:52:17;101943.56;;;7.87;78.48
9129;BME280;4599;50.906;6.786;2024-01-30T21:56:20;101951.19;;;7.88;78.77